Time;durP1;ratioP1;P1;durP2;ratioP2;P2;SDS_P1;SDS_P2;PMS_P1;PMS_P2;Temp;Humidity;BMP_temperature;BMP_pressure;BME280_temperature;BME280_humidity;BME280_pressure;Samples;Min_cycle;Max_cycle;Signal;HPM_P1;HPM_P2
2022/08/02 00:02:23;;;;;;;3.63;2.45;;;24.10;1.00;;;;;;5074676;28;20163;-78
2022/08/02 00:04:49;;;;;;;3.67;2.53;;;24.00;1.00;;;;;;5075821;28;20101;-78
2022/08/02 00:07:16;;;;;;;4.28;2.88;;;23.80;1.00;;;;;;5078260;28;20477;-78
2022/08/02 00:09:42;;;;;;;3.53;2.60;;;23.90;1.00;;;;;;5075456;28;20077;-78
2022/08/02 00:12:08;;;;;;;3.53;2.65;;;24.00;1.00;;;;;;5076560;28;20111;-77
2022/08/02 00:14:35;;;;;;;5.40;2.47;;;24.00;1.00;;;;;;5074993;28;20012;-77
2022/08/02 00:17:01;;;;;;;3.03;2.63;;;24.10;1.00;;;;;;5072059;28;20370;-77
2022/08/02 00:19:26;;;;;;;2.78;2.55;;;24.00;1.00;;;;;;5078216;28;20031;-78
2022/08/02 00:24:27;;;;;;;3.17;2.75;;;24.00;1.00;;;;;;6019483;22;20947;-75
2022/08/02 00:26:53;;;;;;;2.70;2.50;;;24.10;1.00;;;;;;5156289;22;20537;-77
2022/08/02 00:29:19;;;;;;;4.38;2.67;;;24.00;1.00;;;;;;5021840;28;20037;-78
2022/08/02 00:31:44;;;;;;;3.03;2.65;;;23.90;1.00;;;;;;5017537;28;20042;-78
2022/08/02 00:34:10;;;;;;;3.67;2.80;;;23.90;1.00;;;;;;5014426;28;20036;-78
2022/08/02 00:36:35;;;;;;;3.80;2.65;;;23.70;1.00;;;;;;5018317;28;20083;-78
2022/08/02 00:39:01;;;;;;;6.47;2.65;;;23.70;1.00;;;;;;5014312;28;20089;-78
2022/08/02 00:41:27;;;;;;;4.40;2.47;;;23.60;1.00;;;;;;5013696;28;20092;-78
2022/08/02 00:43:52;;;;;;;5.93;2.90;;;23.50;1.00;;;;;;5017447;28;20418;-78
2022/08/02 00:46:19;;;;;;;2.88;2.63;;;23.60;1.00;;;;;;5014577;28;20038;-78
2022/08/02 00:48:46;;;;;;;4.00;2.53;;;23.50;1.00;;;;;;5014048;28;20421;-78
2022/08/02 00:51:13;;;;;;;3.60;2.50;;;23.40;1.00;;;;;;5014163;28;20518;-78
2022/08/02 00:53:38;;;;;;;6.07;2.85;;;23.40;1.00;;;;;;5014225;28;20084;-77
2022/08/02 00:56:04;;;;;;;3.25;2.70;;;23.20;1.00;;;;;;5014051;28;20030;-77
2022/08/02 00:58:30;;;;;;;3.75;2.50;;;23.10;1.00;;;;;;5013752;28;20014;-77
2022/08/02 01:00:56;;;;;;;4.72;2.97;;;23.10;1.00;;;;;;5017961;28;20026;-78
2022/08/02 01:03:23;;;;;;;3.60;2.63;;;23.10;1.00;;;;;;5013924;28;20022;-78
2022/08/02 01:05:49;;;;;;;3.47;2.55;;;23.10;1.00;;;;;;5013861;28;20497;-77
2022/08/02 01:08:15;;;;;;;6.05;2.83;;;23.10;1.00;;;;;;5014000;28;20025;-78
2022/08/02 01:10:41;;;;;;;3.78;2.65;;;23.10;1.00;;;;;;5013412;28;20030;-78
2022/08/02 01:13:06;;;;;;;4.25;2.80;;;23.20;1.00;;;;;;5013846;28;20026;-78
2022/08/02 01:15:36;;;;;;;4.28;2.88;;;23.00;1.00;;;;;;5014003;28;20053;-77
2022/08/02 01:18:08;;;;;;;4.15;2.85;;;23.10;1.00;;;;;;5013705;28;20105;-78
2022/08/02 01:20:58;;;;;;;3.00;2.70;;;23.10;1.00;;;;;;5013800;28;20030;-78
2022/08/02 01:23:45;;;;;;;6.20;2.97;;;23.00;1.00;;;;;;5013561;28;20076;-78
2022/08/02 01:26:37;;;;;;;3.97;2.47;;;23.10;1.00;;;;;;5012948;28;20057;-77
2022/08/02 01:29:23;;;;;;;3.15;2.63;;;23.10;1.00;;;;;;5029949;28;20025;-78
2022/08/02 01:32:08;;;;;;;3.67;2.70;;;23.10;1.00;;;;;;5032152;28;20397;-78
2022/08/02 01:34:45;;;;;;;4.65;3.05;;;22.90;1.00;;;;;;5032256;28;20108;-78
2022/08/02 01:37:25;;;;;;;3.83;2.65;;;22.80;1.00;;;;;;5033159;28;20053;-78
2022/08/02 01:40:01;;;;;;;3.38;2.78;;;22.90;1.00;;;;;;5032839;28;20478;-77
2022/08/02 01:42:28;;;;;;;3.90;2.80;;;22.90;1.00;;;;;;5033073;28;20025;-78
2022/08/02 01:44:57;;;;;;;4.97;2.78;;;22.90;1.00;;;;;;5033276;28;20029;-77
2022/08/02 01:47:32;;;;;;;5.43;3.20;;;22.90;1.00;;;;;;5032819;28;20025;-77
2022/08/02 01:50:00;;;;;;;3.50;3.17;;;22.70;1.00;;;;;;5033003;28;20094;-78
2022/08/02 01:52:29;;;;;;;4.22;2.97;;;22.70;1.00;;;;;;5032306;28;20043;-78
2022/08/02 01:55:16;;;;;;;3.15;2.85;;;22.80;1.00;;;;;;5032559;28;20017;-78
2022/08/02 01:57:56;;;;;;;4.85;2.90;;;22.80;1.00;;;;;;5032626;28;20040;-77
2022/08/02 02:00:24;;;;;;;4.57;2.92;;;22.90;1.00;;;;;;5032594;28;20076;-78
2022/08/02 02:02:54;;;;;;;4.10;2.88;;;23.00;1.00;;;;;;5029620;28;20021;-78
2022/08/02 02:05:27;;;;;;;2.60;2.40;;;23.00;1.00;;;;;;5032738;28;20025;-78
2022/08/02 02:07:56;;;;;;;3.70;3.20;;;23.00;1.00;;;;;;5032577;28;20041;-77
2022/08/02 02:10:26;;;;;;;3.80;2.92;;;22.90;1.00;;;;;;5032040;28;20091;-78
2022/08/02 02:12:53;;;;;;;3.45;3.03;;;22.80;1.00;;;;;;5032789;28;20426;-78
2022/08/02 02:15:20;;;;;;;3.47;3.00;;;22.70;1.00;;;;;;5032362;28;20380;-78
2022/08/02 02:17:48;;;;;;;5.00;3.17;;;22.70;1.00;;;;;;5032607;28;20128;-78
2022/08/02 02:20:17;;;;;;;4.45;3.22;;;22.40;1.00;;;;;;5032394;28;20555;-78
2022/08/02 02:22:43;;;;;;;5.20;3.20;;;22.10;1.00;;;;;;5032717;28;20389;-78
2022/08/02 02:25:10;;;;;;;4.35;2.70;;;22.10;1.00;;;;;;5031903;28;20507;-78
2022/08/02 02:27:38;;;;;;;3.25;2.95;;;22.30;1.00;;;;;;5031887;28;20123;-78
2022/08/02 02:30:05;;;;;;;4.03;3.30;;;22.20;1.00;;;;;;5030911;28;20494;-77
2022/08/02 02:32:32;;;;;;;3.00;2.75;;;22.40;1.00;;;;;;5032334;28;20389;-77
2022/08/02 02:35:00;;;;;;;3.88;2.88;;;22.60;1.00;;;;;;5032273;28;20032;-78
2022/08/02 02:37:27;;;;;;;3.05;2.78;;;22.50;1.00;;;;;;5032137;28;20087;-78
2022/08/02 02:39:54;;;;;;;3.78;2.80;;;22.60;1.00;;;;;;5032173;28;20026;-77
2022/08/02 02:42:26;;;;;;;3.30;2.70;;;22.70;1.00;;;;;;5032201;28;20041;-77
2022/08/02 02:44:52;;;;;;;4.25;2.95;;;22.70;1.00;;;;;;5032233;28;20481;-78
2022/08/02 02:47:19;;;;;;;2.97;2.72;;;22.70;1.00;;;;;;5032174;28;20095;-77
2022/08/02 02:49:48;;;;;;;3.70;3.35;;;22.70;1.00;;;;;;5032586;28;20022;-78
2022/08/02 02:52:16;;;;;;;3.60;3.30;;;22.80;1.00;;;;;;5031724;28;20405;-78
2022/08/02 02:54:43;;;;;;;3.25;2.80;;;22.80;1.00;;;;;;5032207;28;20097;-77
2022/08/02 02:57:10;;;;;;;5.13;2.92;;;22.80;1.00;;;;;;5031703;28;20478;-77
2022/08/02 02:59:38;;;;;;;3.75;2.70;;;22.80;1.00;;;;;;5032187;28;20024;-77
2022/08/02 03:02:05;;;;;;;3.28;2.97;;;22.70;1.00;;;;;;5031761;28;20087;-77
2022/08/02 03:04:31;;;;;;;4.18;2.80;;;22.80;1.00;;;;;;5035323;28;20022;-77
2022/08/02 03:06:58;;;;;;;2.80;2.60;;;22.80;1.00;;;;;;5035517;28;20029;-77
2022/08/02 03:09:24;;;;;;;3.13;2.80;;;22.60;1.00;;;;;;5036002;28;20104;-77
2022/08/02 03:11:51;;;;;;;3.45;2.80;;;22.30;1.00;;;;;;5036274;28;20108;-77
2022/08/02 03:14:17;;;;;;;5.38;3.15;;;22.20;1.00;;;;;;5035676;28;20021;-77
2022/08/02 03:16:48;;;;;;;4.18;3.45;;;22.30;1.00;;;;;;5035770;28;20033;-77
2022/08/02 03:19:14;;;;;;;3.97;3.25;;;22.40;1.00;;;;;;5035793;28;20025;-78
2022/08/02 03:21:41;;;;;;;6.82;2.97;;;22.40;1.00;;;;;;5035676;28;20080;-78
2022/08/02 03:24:08;;;;;;;3.22;2.90;;;22.40;1.00;;;;;;5035562;28;20021;-77
2022/08/02 03:26:34;;;;;;;5.35;3.15;;;22.40;1.00;;;;;;5035382;28;20057;-77
2022/08/02 03:29:00;;;;;;;3.80;3.20;;;22.40;1.00;;;;;;5035468;28;20034;-78
2022/08/02 03:31:26;;;;;;;4.32;3.28;;;22.30;1.00;;;;;;5035553;28;20037;-77
2022/08/02 03:33:53;;;;;;;4.88;3.08;;;22.30;1.00;;;;;;5035442;28;20374;-77
2022/08/02 03:36:21;;;;;;;3.70;3.10;;;22.30;1.00;;;;;;5035011;28;20530;-77
2022/08/02 03:38:48;;;;;;;6.10;3.22;;;22.30;1.00;;;;;;5035818;28;20012;-77
2022/08/02 03:41:17;;;;;;;3.10;2.90;;;22.40;1.00;;;;;;5035640;28;20037;-77
2022/08/02 03:43:44;;;;;;;4.75;2.92;;;22.30;1.00;;;;;;5035007;28;20025;-77
2022/08/02 03:46:13;;;;;;;4.60;3.08;;;22.40;1.00;;;;;;5035274;28;20386;-78
2022/08/02 03:48:39;;;;;;;5.40;3.10;;;22.40;1.00;;;;;;5035365;28;20386;-78
2022/08/02 03:51:06;;;;;;;5.10;3.20;;;22.40;1.00;;;;;;5034991;28;20076;-77
2022/08/02 03:53:32;;;;;;;4.25;3.10;;;22.40;1.00;;;;;;5035056;28;20018;-77
2022/08/02 03:55:59;;;;;;;6.30;3.22;;;22.20;1.00;;;;;;5035071;28;20021;-77
2022/08/02 03:58:25;;;;;;;6.78;3.65;;;22.10;1.00;;;;;;5034791;28;20371;-77
2022/08/02 04:00:55;;;;;;;5.32;3.40;;;22.00;1.00;;;;;;5035013;28;20105;-78
2022/08/02 04:03:21;;;;;;;4.40;3.30;;;21.80;1.00;;;;;;5035177;28;20026;-77
2022/08/02 04:05:47;;;;;;;5.00;3.60;;;21.40;1.00;;;;;;5034492;28;20040;-77
2022/08/02 04:08:12;;;;;;;3.80;3.30;;;21.30;1.00;;;;;;5034832;28;20465;-77
2022/08/02 04:13:25;;;;;;;4.50;3.50;;;21.40;1.00;;;;;;5034988;28;20044;-78
2022/08/02 04:15:56;;;;;;;5.93;3.10;;;21.50;1.00;;;;;;5033760;28;20044;-78
2022/08/02 04:18:26;;;;;;;7.60;3.20;;;21.60;1.00;;;;;;5034658;28;20036;-77
2022/08/02 04:20:54;;;;;;;4.15;3.13;;;21.80;1.00;;;;;;5034403;28;20022;-77
2022/08/02 04:23:23;;;;;;;4.82;3.30;;;21.80;1.00;;;;;;5034548;28;20033;-77
2022/08/02 04:25:50;;;;;;;6.10;3.85;;;21.70;1.00;;;;;;5034499;28;20394;-77
2022/08/02 04:28:16;;;;;;;4.78;3.03;;;21.70;1.00;;;;;;5034374;28;20029;-77
2022/08/02 04:30:42;;;;;;;4.55;3.40;;;21.50;1.00;;;;;;5034071;28;20029;-77
2022/08/02 04:33:08;;;;;;;7.28;3.33;;;21.50;1.00;;;;;;5034394;28;20025;-77
2022/08/02 04:35:34;;;;;;;3.63;3.33;;;21.50;1.00;;;;;;5033954;28;20014;-77
2022/08/02 04:38:00;;;;;;;7.35;3.63;;;21.50;1.00;;;;;;5032873;28;20083;-77
2022/08/02 04:40:26;;;;;;;5.40;3.28;;;21.60;1.00;;;;;;5034101;28;20069;-77
2022/08/02 04:42:52;;;;;;;6.35;3.53;;;21.60;1.00;;;;;;5034089;28;20049;-77
2022/08/02 04:45:19;;;;;;;3.67;3.30;;;21.60;1.00;;;;;;5034381;28;20033;-77
2022/08/02 04:47:45;;;;;;;6.03;3.38;;;21.70;1.00;;;;;;5034124;28;20108;-77
2022/08/02 04:50:10;;;;;;;5.78;3.30;;;21.70;1.00;;;;;;5033882;28;20056;-77
2022/08/02 04:52:36;;;;;;;4.03;3.20;;;21.70;1.00;;;;;;5033686;28;20041;-77
2022/08/02 04:55:01;;;;;;;4.25;3.20;;;21.60;1.00;;;;;;5034051;28;20033;-78
2022/08/02 05:00:11;;;;;;;4.82;3.53;;;21.50;1.00;;;;;;5033707;28;20064;-77
2022/08/02 05:02:37;;;;;;;5.57;3.58;;;21.30;1.00;;;;;;5033527;28;20032;-77
2022/08/02 05:05:03;;;;;;;5.40;3.40;;;21.30;1.00;;;;;;5032453;28;20021;-78
2022/08/02 05:07:29;;;;;;;5.63;3.70;;;21.30;1.00;;;;;;5033866;28;20034;-79
2022/08/02 05:09:54;;;;;;;3.90;3.50;;;21.60;1.00;;;;;;5033552;28;20045;-78
2022/08/02 05:12:21;;;;;;;7.97;3.60;;;21.60;1.00;;;;;;5033323;28;20058;-78
2022/08/02 05:14:47;;;;;;;5.93;4.20;;;21.70;1.00;;;;;;5033622;28;20401;-78
2022/08/02 05:17:13;;;;;;;10.77;4.30;;;21.30;1.00;;;;;;5033175;28;20030;-78
2022/08/02 05:19:39;;;;;;;5.18;3.85;;;21.20;1.00;;;;;;5033426;28;20402;-79
2022/08/02 05:22:04;;;;;;;7.07;3.75;;;21.20;1.00;;;;;;5033715;28;20026;-78
2022/08/02 05:24:30;;;;;;;6.18;4.13;;;21.40;1.00;;;;;;5033384;28;20029;-79
2022/08/02 05:26:56;;;;;;;6.18;3.83;;;21.60;1.00;;;;;;5032998;28;20049;-79
2022/08/02 05:29:22;;;;;;;6.78;3.78;;;21.60;1.00;;;;;;5033378;28;20461;-78
2022/08/02 05:31:47;;;;;;;6.80;3.65;;;21.70;1.00;;;;;;5032777;28;20544;-79
2022/08/02 05:34:13;;;;;;;5.55;3.58;;;21.60;1.00;;;;;;5033149;28;20025;-78
2022/08/02 05:36:39;;;;;;;5.10;3.78;;;21.60;1.00;;;;;;5033017;28;20029;-79
2022/08/02 05:39:05;;;;;;;9.57;4.28;;;21.70;1.00;;;;;;5033309;28;20017;-78
2022/08/02 05:41:30;;;;;;;7.88;3.55;;;21.60;1.00;;;;;;5033009;28;20032;-78
2022/08/02 05:43:56;;;;;;;6.07;3.80;;;21.70;1.00;;;;;;5033151;28;20048;-79
2022/08/02 05:46:23;;;;;;;10.00;4.25;;;21.80;1.00;;;;;;5032364;28;20022;-79
2022/08/02 05:48:48;;;;;;;13.95;4.35;;;22.00;1.00;;;;;;5032890;28;20022;-79
2022/08/02 05:51:34;;;;;;;5.03;3.78;;;22.10;1.00;;;;;;5033247;28;20029;-78
2022/08/02 05:54:03;;;;;;;4.45;3.50;;;22.30;1.00;;;;;;5032772;28;20029;-78
2022/08/02 05:56:40;;;;;;;5.13;3.60;;;22.30;1.00;;;;;;5032831;28;20501;-78
2022/08/02 05:59:21;;;;;;;7.03;4.00;;;22.40;1.00;;;;;;5032656;28;20036;-78
2022/08/02 06:01:51;;;;;;;6.72;3.22;;;22.40;1.00;;;;;;5032497;28;20030;-79
2022/08/02 06:04:25;;;;;;;4.90;3.65;;;22.40;1.00;;;;;;5032605;28;20021;-79
2022/08/02 06:06:55;;;;;;;6.35;3.50;;;22.40;1.00;;;;;;5032450;28;20481;-78
2022/08/02 06:09:23;;;;;;;5.25;3.58;;;22.40;1.00;;;;;;5032615;28;20377;-80
2022/08/02 06:11:51;;;;;;;4.35;3.28;;;22.40;1.00;;;;;;5032332;28;20065;-78
2022/08/02 06:14:17;;;;;;;5.60;3.17;;;22.40;1.00;;;;;;5031948;28;20024;-79
2022/08/02 06:16:43;;;;;;;3.90;3.40;;;22.40;1.00;;;;;;5032178;28;20026;-82
2022/08/02 06:19:11;;;;;;;6.15;3.85;;;22.40;1.00;;;;;;5032422;28;20025;-80
2022/08/02 06:21:41;;;;;;;4.25;3.85;;;22.50;1.00;;;;;;5032260;28;20048;-80
2022/08/02 06:24:09;;;;;;;4.45;3.40;;;22.60;1.00;;;;;;5032307;28;20028;-80
2022/08/02 06:26:36;;;;;;;7.30;3.70;;;22.30;1.00;;;;;;5032478;28;20057;-81
2022/08/02 06:29:03;;;;;;;7.25;3.20;;;22.30;1.00;;;;;;5031987;28;20025;-80
2022/08/02 06:31:29;;;;;;;4.68;2.95;;;22.30;1.00;;;;;;5031903;28;20371;-80
2022/08/02 06:33:55;;;;;;;5.00;3.08;;;22.40;1.00;;;;;;5032169;28;20033;-80
2022/08/02 06:36:33;;;;;;;3.60;3.08;;;22.50;1.00;;;;;;5032053;28;20473;-80
2022/08/02 06:39:18;;;;;;;3.90;3.38;;;22.40;1.00;;;;;;5031555;28;20036;-81
2022/08/02 06:41:47;;;;;;;4.07;3.47;;;22.50;1.00;;;;;;5031769;28;20022;-81
2022/08/02 06:44:12;;;;;;;6.40;3.38;;;22.50;1.00;;;;;;5032009;28;20436;-80
2022/08/02 06:46:38;;;;;;;6.60;3.40;;;22.70;1.00;;;;;;5031890;28;20029;-81
2022/08/02 06:49:04;;;;;;;6.07;3.72;;;22.70;1.00;;;;;;5032093;28;20079;-80
2022/08/02 06:51:30;;;;;;;5.97;3.22;;;23.30;1.00;;;;;;5031741;28;20038;-80
2022/08/02 06:53:55;;;;;;;7.80;3.80;;;23.00;1.00;;;;;;5032007;28;20044;-80
2022/08/02 06:56:21;;;;;;;3.65;3.35;;;23.00;1.00;;;;;;5031861;28;20026;-80
2022/08/02 06:58:47;;;;;;;4.68;3.40;;;23.00;1.00;;;;;;5031930;28;20049;-80
2022/08/02 07:01:13;;;;;;;4.22;3.17;;;22.90;1.00;;;;;;5031992;28;20478;-80
2022/08/02 07:03:39;;;;;;;5.38;3.60;;;23.00;1.00;;;;;;5031776;28;20476;-80
2022/08/02 07:06:09;;;;;;;5.43;3.70;;;22.90;1.00;;;;;;5031772;28;20033;-81
2022/08/02 07:08:37;;;;;;;8.82;3.90;;;22.80;1.00;;;;;;5031808;28;20022;-79
2022/08/02 07:11:07;;;;;;;4.05;3.67;;;22.70;1.00;;;;;;5031052;28;20037;-81
2022/08/02 07:13:33;;;;;;;6.82;3.67;;;22.80;1.00;;;;;;5031138;28;20445;-79
2022/08/02 07:16:00;;;;;;;5.60;3.60;;;22.90;1.00;;;;;;5032175;28;20021;-80
2022/08/02 07:18:26;;;;;;;5.80;3.70;;;23.00;1.00;;;;;;5031367;28;20021;-80
2022/08/02 07:20:53;;;;;;;3.92;3.53;;;23.20;1.00;;;;;;5031261;28;20449;-80
2022/08/02 07:23:19;;;;;;;3.50;3.20;;;23.10;1.00;;;;;;5031627;28;20417;-79
2022/08/02 07:25:45;;;;;;;5.30;3.88;;;23.10;1.00;;;;;;5031156;28;20029;-78
2022/08/02 07:28:13;;;;;;;7.07;3.60;;;23.20;1.00;;;;;;5031254;28;20482;-79
2022/08/02 07:30:38;;;;;;;8.30;3.65;;;23.40;1.00;;;;;;5030777;28;20064;-79
2022/08/02 07:33:04;;;;;;;5.30;3.30;;;23.40;1.00;;;;;;5032224;28;20034;-79
2022/08/02 07:35:30;;;;;;;5.63;3.80;;;23.50;1.00;;;;;;5031021;28;20026;-79
2022/08/02 07:37:56;;;;;;;4.53;3.33;;;23.50;1.00;;;;;;5031554;28;20057;-79
2022/08/02 07:40:22;;;;;;;5.60;3.15;;;23.60;1.00;;;;;;5031221;28;20048;-79
2022/08/02 07:42:52;;;;;;;5.63;3.55;;;23.80;1.00;;;;;;5029625;28;20084;-80
2022/08/02 07:45:20;;;;;;;3.70;3.38;;;24.00;1.00;;;;;;5031579;28;20425;-80
2022/08/02 07:47:45;;;;;;;7.93;3.70;;;23.80;1.00;;;;;;5030891;28;20025;-80
2022/08/02 07:50:13;;;;;;;5.68;3.38;;;24.00;1.00;;;;;;5030794;28;20021;-80
2022/08/02 07:52:39;;;;;;;5.15;3.45;;;24.00;1.00;;;;;;5034614;28;20112;-80
2022/08/02 07:55:06;;;;;;;11.57;4.03;;;24.00;1.00;;;;;;5034881;28;20026;-80
2022/08/02 07:57:31;;;;;;;6.03;3.30;;;24.20;1.00;;;;;;5034665;28;20478;-80
2022/08/02 07:59:57;;;;;;;4.63;2.90;;;24.40;1.00;;;;;;5034792;28;20028;-80
2022/08/02 08:02:23;;;;;;;4.57;3.15;;;24.60;1.00;;;;;;5034511;28;20029;-80
2022/08/02 08:04:50;;;;;;;4.25;3.20;;;24.70;1.00;;;;;;5034898;28;20029;-80
2022/08/02 08:07:15;;;;;;;6.22;3.42;;;24.50;1.00;;;;;;5034263;28;20439;-80
2022/08/02 08:09:42;;;;;;;3.95;3.15;;;24.50;1.00;;;;;;5034229;28;20112;-80
2022/08/02 08:12:09;;;;;;;4.60;2.97;;;24.60;1.00;;;;;;5034388;28;20101;-80
2022/08/02 08:14:35;;;;;;;6.35;3.25;;;24.80;1.00;;;;;;5034054;28;20036;-80
2022/08/02 08:17:02;;;;;;;6.63;2.70;;;25.00;1.00;;;;;;5033921;28;20440;-81
2022/08/02 08:19:27;;;;;;;4.35;2.65;;;25.00;1.00;;;;;;5034787;28;20021;-81
2022/08/02 08:21:53;;;;;;;4.03;2.55;;;25.00;1.00;;;;;;5032370;28;20084;-81
2022/08/02 08:24:19;;;;;;;9.25;2.80;;;25.20;1.00;;;;;;5034269;28;20665;-81
2022/08/02 08:26:44;;;;;;;2.53;2.22;;;25.30;1.00;;;;;;5033710;28;20049;-81
2022/08/02 08:29:10;;;;;;;4.85;2.40;;;25.40;1.00;;;;;;5033748;28;20108;-81
2022/08/02 08:31:36;;;;;;;3.05;2.33;;;25.40;1.00;;;;;;5033818;28;20043;-81
2022/08/02 08:34:02;;;;;;;2.88;2.25;;;25.40;1.00;;;;;;5033991;28;20025;-81
2022/08/02 08:36:28;;;;;;;5.20;2.47;;;25.40;1.00;;;;;;5033984;28;20402;-81
2022/08/02 08:38:54;;;;;;;3.72;2.47;;;25.70;1.00;;;;;;5034295;28;20029;-81
2022/08/02 08:41:19;;;;;;;9.00;2.83;;;25.90;1.00;;;;;;5033886;28;20033;-81
2022/08/02 08:43:46;;;;;;;3.05;2.38;;;25.90;1.00;;;;;;5034217;28;20163;-81
2022/08/02 08:46:23;;;;;;;4.88;2.53;;;25.90;1.00;;;;;;5033335;28;20385;-80
2022/08/02 08:48:52;;;;;;;4.07;2.20;;;25.80;1.00;;;;;;5033878;28;20505;-80
2022/08/02 08:51:21;;;;;;;3.90;2.25;;;26.00;1.00;;;;;;5032668;28;20068;-82
2022/08/02 08:53:49;;;;;;;3.83;2.58;;;25.90;1.00;;;;;;5033347;28;20049;-81
2022/08/02 08:56:16;;;;;;;4.95;2.20;;;25.80;1.00;;;;;;5032796;28;20029;-81
2022/08/02 08:58:43;;;;;;;7.05;2.33;;;25.90;1.00;;;;;;5033801;28;20025;-80
2022/08/02 09:01:09;;;;;;;3.50;2.20;;;26.10;1.00;;;;;;5032923;28;20083;-81
2022/08/02 09:03:35;;;;;;;5.38;2.50;;;26.30;1.00;;;;;;5033773;28;20029;-81
2022/08/02 09:06:01;;;;;;;3.67;2.30;;;26.40;1.00;;;;;;5033555;28;20034;-81
2022/08/02 09:08:27;;;;;;;3.35;2.42;;;26.70;1.00;;;;;;5033214;28;20087;-81
2022/08/02 09:10:54;;;;;;;4.95;2.35;;;26.70;1.00;;;;;;5032878;28;20037;-80
2022/08/02 09:13:22;;;;;;;2.97;2.10;;;26.60;1.00;;;;;;5032284;28;20228;-80
2022/08/02 09:15:56;;;;;;;2.85;2.08;;;26.70;1.00;;;;;;5033273;28;20105;-80
2022/08/02 09:18:37;;;;;;;3.10;2.10;;;26.80;1.00;;;;;;5033547;28;20067;-80
2022/08/02 09:21:05;;;;;;;4.38;2.50;;;26.80;1.00;;;;;;5031792;28;20038;-81
2022/08/02 09:23:36;;;;;;;4.78;2.20;;;26.90;1.00;;;;;;5029672;28;20025;-81
2022/08/02 09:26:05;;;;;;;2.83;2.17;;;27.10;1.00;;;;;;5030315;28;20049;-81
2022/08/02 09:28:32;;;;;;;5.18;2.10;;;27.10;1.00;;;;;;5020664;28;20029;-80
2022/08/02 09:31:12;;;;;;;2.60;2.40;;;27.30;1.00;;;;;;5029957;28;20467;-81
2022/08/02 09:33:39;;;;;;;4.63;2.10;;;27.30;1.00;;;;;;5031971;28;20017;-81
2022/08/02 09:36:11;;;;;;;3.00;2.28;;;27.30;1.00;;;;;;5016763;28;20018;-82
2022/08/02 09:38:38;;;;;;;16.60;2.97;;;27.40;1.00;;;;;;5024507;28;20061;-81
2022/08/02 09:41:06;;;;;;;2.92;2.00;;;27.40;1.00;;;;;;5032828;28;20508;-81
2022/08/02 09:43:36;;;;;;;2.40;1.60;;;27.30;1.00;;;;;;5023912;28;20033;-81
2022/08/02 09:46:16;;;;;;;1.92;1.73;;;27.30;1.00;;;;;;5032995;28;20112;-81
2022/08/02 09:48:54;;;;;;;1.60;1.50;;;27.40;1.00;;;;;;5032181;28;20021;-81
2022/08/02 09:51:46;;;;;;;2.85;1.80;;;27.40;1.00;;;;;;5029722;28;20029;-81
2022/08/02 09:54:17;;;;;;;2.55;1.52;;;27.40;1.00;;;;;;5025368;28;20042;-81
2022/08/02 09:56:53;;;;;;;3.40;1.88;;;27.60;1.00;;;;;;5029769;28;20540;-81
2022/08/02 09:59:23;;;;;;;5.25;1.70;;;27.60;1.00;;;;;;5031888;28;20055;-81
2022/08/02 10:01:49;;;;;;;2.53;2.05;;;27.90;1.00;;;;;;5032021;28;20137;-79
2022/08/02 10:04:22;;;;;;;2.67;1.77;;;28.00;1.00;;;;;;5032225;28;20025;-81
2022/08/02 10:06:49;;;;;;;4.13;1.70;;;28.10;1.00;;;;;;5032625;28;20021;-80
2022/08/02 10:09:16;;;;;;;1.88;1.60;;;28.20;1.00;;;;;;5031340;28;20037;-81
2022/08/02 10:11:42;;;;;;;1.88;1.60;;;28.00;1.00;;;;;;5031291;28;20034;-81
2022/08/02 10:14:09;;;;;;;3.80;1.80;;;27.90;1.00;;;;;;5030689;28;20040;-81
2022/08/02 10:16:37;;;;;;;2.83;1.80;;;28.00;1.00;;;;;;5032737;28;20029;-81
2022/08/02 10:19:04;;;;;;;2.85;2.65;;;28.20;1.00;;;;;;5030401;28;20029;-81
2022/08/02 10:21:43;;;;;;;3.22;1.67;;;28.30;1.00;;;;;;5032288;28;20025;-81
2022/08/02 10:24:12;;;;;;;3.47;1.80;;;28.30;1.00;;;;;;5032272;28;20029;-81
2022/08/02 10:26:39;;;;;;;3.10;1.40;;;28.50;1.00;;;;;;5031622;28;20502;-81
2022/08/02 10:29:08;;;;;;;6.63;1.50;;;28.50;1.00;;;;;;5028143;28;20505;-81
2022/08/02 10:31:45;;;;;;;2.80;1.60;;;28.40;1.00;;;;;;5012510;28;20111;-81
2022/08/02 10:34:18;;;;;;;2.10;1.50;;;28.50;1.00;;;;;;5017533;28;20384;-82
2022/08/02 10:36:45;;;;;;;1.63;1.40;;;28.70;1.00;;;;;;5029861;28;20021;-81
2022/08/02 10:39:11;;;;;;;2.42;1.65;;;28.60;1.00;;;;;;5031828;28;20032;-81
2022/08/02 10:41:42;;;;;;;3.33;1.55;;;28.60;1.00;;;;;;5032212;28;20022;-82
2022/08/02 10:44:18;;;;;;;3.90;1.40;;;28.70;1.00;;;;;;5032060;28;20542;-81
2022/08/02 10:46:44;;;;;;;3.25;1.50;;;28.80;1.00;;;;;;5031771;28;20025;-82
2022/08/02 10:49:21;;;;;;;1.65;1.38;;;28.90;1.00;;;;;;5032123;28;20545;-81
2022/08/02 10:52:01;;;;;;;3.35;1.40;;;28.90;1.00;;;;;;5030952;28;20433;-80
2022/08/02 10:54:36;;;;;;;2.83;1.20;;;29.00;1.00;;;;;;5031588;28;20036;-79
2022/08/02 10:57:12;;;;;;;1.70;1.58;;;29.30;1.00;;;;;;5031838;28;20079;-79
2022/08/02 10:59:38;;;;;;;3.13;1.40;;;29.40;1.00;;;;;;5031704;28;20060;-80
2022/08/02 11:02:05;;;;;;;3.17;1.50;;;29.50;1.00;;;;;;5032469;28;20025;-80
2022/08/02 11:04:51;;;;;;;3.55;1.30;;;29.30;1.00;;;;;;5032433;28;20375;-80
2022/08/02 11:07:18;;;;;;;3.40;1.25;;;29.30;1.00;;;;;;5021031;28;20029;-79
2022/08/02 11:09:45;;;;;;;2.53;1.10;;;29.60;1.00;;;;;;5031992;28;20014;-80
2022/08/02 11:12:16;;;;;;;1.60;1.20;;;30.00;1.00;;;;;;5032080;28;20048;-80
2022/08/02 11:14:45;;;;;;;2.80;1.38;;;30.30;1.00;;;;;;5031629;28;20060;-80
2022/08/02 11:17:16;;;;;;;4.07;1.10;;;30.30;1.00;;;;;;5032453;28;20359;-80
2022/08/02 11:20:09;;;;;;;3.35;1.30;;;30.80;1.00;;;;;;5031536;28;20025;-80
2022/08/02 11:22:35;;;;;;;2.17;1.30;;;32.70;1.00;;;;;;5031876;28;20029;-80
2022/08/02 11:25:23;;;;;;;2.88;1.13;;;35.40;1.00;;;;;;5032879;28;20021;-80
2022/08/02 11:27:53;;;;;;;2.70;1.25;;;37.30;1.00;;;;;;5035213;28;20049;-80
2022/08/02 11:30:20;;;;;;;1.48;1.10;;;39.50;1.00;;;;;;5034448;28;20037;-80
2022/08/02 11:32:46;;;;;;;1.88;0.90;;;39.50;1.00;;;;;;5034156;28;20045;-80
2022/08/02 11:35:12;;;;;;;1.40;1.20;;;40.60;1.00;;;;;;5035164;28;20445;-80
2022/08/02 11:37:41;;;;;;;2.22;1.10;;;41.10;1.00;;;;;;5035790;28;20029;-80
2022/08/02 11:40:12;;;;;;;2.70;1.00;;;41.30;1.00;;;;;;5035571;28;20021;-80
2022/08/02 11:42:40;;;;;;;2.78;1.00;;;41.60;1.00;;;;;;5035536;28;20030;-80
2022/08/02 11:45:08;;;;;;;1.10;1.00;;;42.30;1.00;;;;;;5033940;28;20385;-80
2022/08/02 11:47:47;;;;;;;1.33;1.00;;;43.50;1.00;;;;;;5035090;28;20443;-80
2022/08/02 11:50:14;;;;;;;2.35;1.10;;;42.40;1.00;;;;;;5034181;28;20014;-80
2022/08/02 11:52:40;;;;;;;1.45;0.90;;;42.90;1.00;;;;;;5035085;28;20052;-80
2022/08/02 11:55:07;;;;;;;1.95;1.10;;;42.30;1.00;;;;;;5034956;28;20029;-80
2022/08/02 11:57:33;;;;;;;1.60;1.15;;;42.20;1.00;;;;;;5035709;28;20434;-80
2022/08/02 11:59:59;;;;;;;1.65;0.90;;;42.20;1.00;;;;;;5035083;28;20022;-80
2022/08/02 12:02:27;;;;;;;1.98;1.13;;;43.60;1.00;;;;;;5035070;28;20036;-81
2022/08/02 12:05:05;;;;;;;1.85;1.17;;;44.50;1.00;;;;;;5034676;28;20030;-80
2022/08/02 12:07:36;;;;;;;2.47;1.00;;;44.20;1.00;;;;;;5035191;28;20025;-78
2022/08/02 12:10:22;;;;;;;1.70;0.98;;;43.90;1.00;;;;;;5034690;28;20021;-78
2022/08/02 12:12:51;;;;;;;2.60;1.00;;;43.40;1.00;;;;;;5034944;28;20124;-78
2022/08/02 12:15:32;;;;;;;1.50;1.00;;;44.00;1.00;;;;;;5035001;28;20018;-77
2022/08/02 12:20:42;;;;;;;2.80;1.25;;;44.40;1.00;;;;;;5035415;28;20398;-78
2022/08/02 12:23:07;;;;;;;1.58;1.08;;;44.40;1.00;;;;;;5034585;28;20022;-78
2022/08/02 12:25:33;;;;;;;2.05;1.08;;;45.60;1.00;;;;;;5034034;28;20029;-78
2022/08/02 12:28:15;;;;;;;1.33;1.10;;;45.60;1.00;;;;;;5035033;28;20034;-78
2022/08/02 12:30:52;;;;;;;2.13;1.08;;;45.70;1.00;;;;;;5034589;28;20021;-78
2022/08/02 12:33:18;;;;;;;3.17;1.02;;;46.40;1.00;;;;;;5034240;28;20040;-78
2022/08/02 12:35:43;;;;;;;1.75;1.10;;;45.60;1.00;;;;;;5033555;28;20026;-78
2022/08/02 12:38:10;;;;;;;1.05;1.00;;;45.70;1.00;;;;;;5034349;28;20035;-78
2022/08/02 12:40:36;;;;;;;2.22;1.08;;;45.70;1.00;;;;;;5033069;28;20100;-78
2022/08/02 12:43:07;;;;;;;1.65;0.85;;;45.80;1.00;;;;;;5034195;28;20031;-78
2022/08/02 12:45:52;;;;;;;1.42;0.90;;;46.60;1.00;;;;;;5034097;28;20017;-79
2022/08/02 12:48:36;;;;;;;4.72;1.30;;;45.50;1.00;;;;;;5034097;28;20033;-78
2022/08/02 12:51:19;;;;;;;1.45;1.00;;;45.60;1.00;;;;;;5034074;28;20025;-78
2022/08/02 12:53:44;;;;;;;2.10;1.00;;;45.10;1.00;;;;;;5033924;28;20021;-79
2022/08/02 12:56:10;;;;;;;2.22;1.10;;;44.60;1.00;;;;;;5032640;28;20032;-78
2022/08/02 12:58:48;;;;;;;1.00;0.85;;;43.80;1.00;;;;;;5034277;28;20060;-78
2022/08/02 13:01:20;;;;;;;2.53;1.10;;;43.70;1.00;;;;;;5033513;28;20026;-78
2022/08/02 13:03:46;;;;;;;1.73;1.00;;;42.80;1.00;;;;;;5034143;28;20028;-78
2022/08/02 13:06:12;;;;;;;1.67;1.17;;;43.40;1.00;;;;;;5033644;28;20029;-78
2022/08/02 13:08:38;;;;;;;1.75;1.10;;;43.70;1.00;;;;;;5033686;28;20072;-79
2022/08/02 13:11:03;;;;;;;2.05;0.90;;;42.90;1.00;;;;;;5033695;28;20029;-79
2022/08/02 13:13:29;;;;;;;1.08;1.00;;;43.00;1.00;;;;;;5033533;28;20104;-78
2022/08/02 13:15:55;;;;;;;3.00;1.30;;;42.30;1.00;;;;;;5033614;28;20048;-78
2022/08/02 13:18:21;;;;;;;3.13;1.00;;;42.20;1.00;;;;;;5032229;28;20033;-78